Pagrindinis puslapis
METAR-TAF:

METAR-TAF

Oro uostai :

Haifa, Izraelis

platuma: 32-48N, ilguma: 035-02E, Aukštis: 8 m

Dabartinis oras

Ataskaita buvo paskelbta 27 minutes, ne 06:50 UTC
Vėjas 7 kt iš Šiaurės/Šiaurės Vakarų
Temperatūra 23°C
Drėgmė 65%
Slėgis 1015 hPa
Matomumas 10 km arba daugiau
Mažai debesys ne aukštis 2200 ft

METAR: LLHA 140650Z 33007KT 9999 FEW022 23/16 Q1015

Laikas: 10:17 (07:17 UTC)

Prognozė

Ataskaita buvo paskelbta 2 valandos ir 11 minutes, ne 05:06 UTC
Prognozė galioja nuo 14 metu 06 UTC su 15 metu 06 UTC
Vėjas 4 kt nuo kintamojo kryptimis
Matomumas 10 km arba daugiau
Išsisklaidę debesys ne aukštis 2500 ft
Nuo 14 metu 0800 UTC
Vėjas 10 kt iš Šiaurės Vakarų
Matomumas 10 km arba daugiau
nėra debesų žemiau 1500 m ir nėra kamuolinių lietaus debesų
Laikinai
nuo 14 metu 21 UTC su 15 metu 04 UTC
Vėjas 4 kt nuo kintamojo kryptimis
Su prošvaistėmis ne aukštis 1700 ft

TAF: LLHA 140506Z 1406/1506 VRB04KT 9999 SCT025 FM140800 31010KT CAVOK TEMPO 1421/1504 VRB04KT BKN017 TX26/1410Z TN18/1504Z

Orai ataskaitas ir orų prognozės (METAR, TAF).

turimą stotys yra geltonos ir raudonos taškus žemėlapyje.

Perkelti pele per norėdami pamatyti stoties vardą.

Tada spustelėkite, norėdami matyti oro stebėjimo ir prognozės.

Norėdami pakeisti žemėlapį: spustelėkite ant žalios mygtukų su juodo kryžiaus žemyn,; žalią mygtuką su brūkšneliu, jei norite nutolinti; arba žalių rodyklių gretimoms žemėlapius.


METAR-TAF: